Stations météo

Publicité
Mont Aigoual, France (7560): Température de l'air & dewpoint: 17.01.2017 05:00:00 - 23.01.2017 05:00:00 (CET)Mont Aigoual, France (7560): Vitesse du vent & gusts: 17.01.2017 05:00:00 - 23.01.2017 05:00:00 (CET)Mont Aigoual, France (7560): Direction du vent: 17.01.2017 05:00:00 - 23.01.2017 05:00:00 (CET)Mont Aigoual, France (7560): visibility: 17.01.2017 05:00:00 - 23.01.2017 05:00:00 (CET)Mont Aigoual, France (7560): Quantités de précipitations: 17.01.2017 05:00:00 - 23.01.2017 05:00:00 (CET)
Date & Time tt [°C] td [°C] ff [km/h] ff [knt] fx [km/h] fx [knt] dd vv [km] rr [mm]
23.01.2017 05:00:00 -0,4 -4,1 16 9 32 17 N 20 0,0
23.01.2017 04:00:00 -0,1 -4,2 18 10 30 16 E 20 0,0
23.01.2017 03:00:00 -0,6 -4,5 19 10 36 19 NNE 20 0,0
23.01.2017 02:00:00 -0,9 -4,4 24 13 36 20 NE 20 0,0
23.01.2017 01:00:00 -0,9 -1,9 21 11 37 20 ENE 20 0,2
23.01.2017 00:00:00 -2,1 -2,9 22 12 42 23 ENE 10 0,0
22.01.2017 23:00:00 -1,7 -2,0 22 12 44 24 E 0,1 0,8
22.01.2017 22:00:00 -2,0 -2,3 21 12 36 19 ENE 0,1 0,6
22.01.2017 21:00:00 -1,8 -2,1 18 10 29 16 ENE 0,1 0,8
22.01.2017 20:00:00 -1,3 -1,6 19 11 40 21 E 0,1 0,4
22.01.2017 19:00:00 -2,5 -3,2 13 7 36 19 NE 0,9 0,4
22.01.2017 18:00:00 -1,6 -3,2 17 9 37 20 ESE 14 0,0
22.01.2017 17:00:00 -2,6 -3,0 14 7 29 16 NNE 0,8 0,2
22.01.2017 16:00:00 -2,9 -3,6 23 12 43 23 NNE 0,2 0,2
22.01.2017 15:00:00 -2,1 -4,1 21 12 51 28 E 7 0,2
22.01.2017 14:00:00 -2,4 -4,0 19 11 41 22 E 0,9 0,2
22.01.2017 13:00:00 -2,0 -4,2 16 9 43 23 ENE 1,6 0,0
22.01.2017 12:00:00 -1,2 -5,8 22 12 48 26 ENE 10 0,0
22.01.2017 11:00:00 -2,6 -6,1 35 19 56 30 NNE 2,6 0,0
22.01.2017 10:00:00 -1,2 -9,3 18 10 44 24 E 6 0,0
22.01.2017 09:00:00 -0,4 -13,3 16 9 41 22 E 20 0,0
22.01.2017 08:00:00 0,3 -14,5 24 13 45 25 E 20 0,0
22.01.2017 07:00:00 0,3 -14,9 18 10 35 19 E 20 0,0
22.01.2017 06:00:00 0,6 -15,0 20 11 34 18 ENE 20 0,0
22.01.2017 05:00:00 0,2 -15,0 19 10 35 19 NE 20 0,0
22.01.2017 04:00:00 0,3 -14,5 25 14 38 21 NE 20 0,0
22.01.2017 03:00:00 0,1 -14,3 26 14 39 21 NE 20 0,0
22.01.2017 02:00:00 0,1 -14,3 26 14 39 21 NE 20 0,0
22.01.2017 01:00:00 0,2 -13,8 21 11 41 22 NE 20 0,0
22.01.2017 00:00:00 0,2 -13,8 27 15 51 28 NE 20 0,0
21.01.2017 23:00:00 0,1 -13,6 30 16 45 24 NE 20 0,0
21.01.2017 22:00:00 0,2 -13,8 31 17 58 31 NNE 20 0,0
21.01.2017 21:00:00 0,2 -13,5 30 16 49 26 NE 20 0,0
21.01.2017 20:00:00 0,2 -12,8 29 15 44 24 NNE 20 0,0
21.01.2017 19:00:00 0,1 -11,9 30 16 49 27 NNE 20 0,0
21.01.2017 18:00:00 -0,1 -11,8 29 16 39 21 NNE 20 0,0
21.01.2017 17:00:00 -0,1 -11,5 24 13 37 20 NE 20 0,0
21.01.2017 16:00:00 0,1 -11,3 19 10 34 19 NE 20 0,0
21.01.2017 15:00:00 0,1 -10,2 17 9 29 16 NE 20 0,0
21.01.2017 14:00:00 1,3 -9,6 18 10 44 24 SE 20 0,0
21.01.2017 13:00:00 1,3 -9,4 17 9 41 22 SE 20 0,0
21.01.2017 12:00:00 0,7 -9,3 22 12 49 27 SE 20 0,0
21.01.2017 11:00:00 0,0 -8,7 24 13 48 26 SSE 20 0,0
21.01.2017 10:00:00 -1,5 -9,2 27 15 50 27 SSE 20 0,0
21.01.2017 09:00:00 -2,2 -9,1 26 14 46 25 SSE 20 0,0
21.01.2017 08:00:00 -2,4 -9,1 27 15 52 28 SSE 20 0,0
21.01.2017 07:00:00 -2,4 -9,1 26 14 52 28 SSE 20 0,0
21.01.2017 06:00:00 -2,4 -9,1 27 15 54 29 SSE 20 0,0
21.01.2017 05:00:00 -2,5 -8,6 24 13 58 31 SSE 20 0,0
21.01.2017 04:00:00 -2,5 -8,2 29 16 52 28 SE 20 0,0
21.01.2017 03:00:00 -3,2 -6,5 28 15 54 29 SSE 20 0,0
21.01.2017 02:00:00 -3,3 -4,6 28 15 49 26 S 20 0,0
21.01.2017 01:00:00 -3,4 -4,1 29 16 50 27 SSE 16 0,0
21.01.2017 00:00:00 -3,6 -5,9 27 15 48 26 SE 20 0,0
20.01.2017 23:00:00 -3,7 -8,0 26 14 45 24 ESE 20 0,0
20.01.2017 22:00:00 -3,8 -7,4 19 11 38 20 SSE 20 0,0
20.01.2017 21:00:00 -3,6 -7,6 22 12 39 21 SE 20 0,0
20.01.2017 20:00:00 -3,6 -7,7 18 10 41 22 ESE 20 0,0
20.01.2017 19:00:00 -3,7 -7,3 25 14 40 22 SE 20 0,0
20.01.2017 18:00:00 -3,6 -7,6 18 10 35 19 SE 20 0,0
20.01.2017 17:00:00 -2,7 -7,4 23 12 38 20 ESE 20 0,0
20.01.2017 16:00:00 -1,2 -6,2 18 10 35 19 S 20 0,0
20.01.2017 15:00:00 -1,3 -5,9 21 12 40 21 S 19 0,0
20.01.2017 14:00:00 -1,8 -5,6 24 13 48 26 S 20 0,0
20.01.2017 13:00:00 -2,1 -6,1 25 13 48 26 S 20 0,0
20.01.2017 12:00:00 -2,7 -5,5 27 15 54 29 SSE 20 0,0
20.01.2017 11:00:00 -4,5 -5,9 31 17 50 27 SSE 16 0,0
20.01.2017 10:00:00 -4,3 -6,3 35 19 56 30 S 20 0,0
20.01.2017 09:00:00 -4,6 -6,7 31 17 44 24 SSE 20 0,0
20.01.2017 08:00:00 -4,8 -7,1 27 15 48 26 S 20 0,0
20.01.2017 07:00:00 -4,8 -6,6 29 16 41 22 S 20 0,0
20.01.2017 06:00:00 -4,8 -6,8 29 16 44 24 S 20 0,0
20.01.2017 05:00:00 -4,5 -7,9 24 13 32 18 S 20 0,0
20.01.2017 04:00:00 -4,3 -12,7 19 10 24 13 SE 20 0,0
20.01.2017 03:00:00 -3,9 -13,6 13 7 18 10 ENE 20 0,0
20.01.2017 02:00:00 -4,1 -13,5 14 7 29 16 NE 20 0,0
20.01.2017 01:00:00 -3,7 -13,9 19 10 33 18 ENE 20 0,0
20.01.2017 00:00:00 -3,3 -13,3 16 9 39 21 ENE 20 0,0
19.01.2017 23:00:00 -2,9 -13,8 23 13 32 18 NE 20 0,0
19.01.2017 22:00:00 -2,9 -9,4 17 9 26 14 ENE 20 0,0
19.01.2017 21:00:00 -2,6 -11,1 18 10 24 13 NE 20 0,0
19.01.2017 20:00:00 -2,4 -11,7 21 11 27 15 NNE 20 0,0
19.01.2017 19:00:00 -2,4 -11,2 21 11 27 15 NNE 20 0,0
19.01.2017 18:00:00 -2,2 -9,4 16 8 17 9 N 20 0,0
19.01.2017 17:00:00 -1,0 -8,5 4 2 14 8 E 20 0,0
19.01.2017 16:00:00 -0,2 -7,9 3 2 13 7 SE 20 0,0
19.01.2017 15:00:00 0,3 -8,7 3 1 19 10 ESE 20 0,0
19.01.2017 14:00:00 0,5 -8,0 9 5 22 12 SSW 20 0,0
19.01.2017 13:00:00 0,1 -8,4 11 6 27 15 S 20 0,0
19.01.2017 12:00:00 -1,8 -6,2 20 11 39 21 S 20 0,0
19.01.2017 11:00:00 -2,4 -6,9 27 15 48 26 S 20 0,0
19.01.2017 10:00:00 -2,9 -8,4 31 17 56 30 SSW 20 0,0
19.01.2017 09:00:00 -3,7 -13,9 36 19 53 29 SSW 20 0,0
19.01.2017 08:00:00 -3,6 -16,2 28 15 43 23 S 20 0,0
19.01.2017 07:00:00 -3,2 -16,2 31 17 44 24 S 20 0,0
19.01.2017 06:00:00 -3,4 -16,4 22 12 27 14 S 20 0,0
19.01.2017 05:00:00 -2,9 -16,6 14 8 18 10 S 20 0,0
19.01.2017 04:00:00 -2,7 -16,8 10 5 15 8 S 20 0,0
19.01.2017 03:00:00 -2,9 -16,6 11 6 14 8 WSW 20 0,0
19.01.2017 02:00:00 -2,4 -16,9 4 2 18 10 SSW 20 0,0
19.01.2017 01:00:00 -3,0 -16,7 7 4 16 9 NW 20 0,0
19.01.2017 00:00:00 -2,9 -17,0 6 3 15 8 N 20 0,0
18.01.2017 23:00:00 -2,6 -16,7 13 7 19 10 NNE 20 0,0
18.01.2017 22:00:00 -3,1 -16,1 14 8 25 13 N 20 0,0
18.01.2017 21:00:00 -3,5 -16,1 21 11 26 14 N 20 0,0
18.01.2017 20:00:00 -3,3 -15,0 20 11 24 13 N 20 0,0
18.01.2017 19:00:00 -3,2 -15,2 13 7 20 11 N 20 0,0
18.01.2017 18:00:00 -3,4 -15,4 11 6 19 11 N 20 0,0
18.01.2017 17:00:00 -3,6 -15,0 14 8 25 14 NNE 20 0,0
18.01.2017 16:00:00 -3,9 -14,4 14 8 33 18 NE 20 0,0
18.01.2017 15:00:00 -4,0 -13,9 20 11 37 20 NNE 20 0,0
18.01.2017 14:00:00 -3,8 -14,0 22 12 38 20 NE 20 0,0
18.01.2017 13:00:00 -4,1 -14,3 21 12 35 19 NNE 20 0,0
18.01.2017 12:00:00 -4,0 -14,2 15 8 27 14 NE 20 0,0
18.01.2017 11:00:00 -4,2 -14,4 17 9 29 16 NNE 20 0,0
18.01.2017 10:00:00 -4,8 -14,7 22 12 34 19 NNE 20 0,0
18.01.2017 09:00:00 -6,0 -15,0 21 11 32 18 NNE 20 0,0
18.01.2017 08:00:00 -6,8 -15,3 22 12 29 16 NNE 20 0,0
18.01.2017 07:00:00 -7,3 -15,3 19 10 29 15 NE 20 0,0
18.01.2017 06:00:00 -7,5 -15,0 19 10 23 12 NNE 20 0,0
18.01.2017 05:00:00 -8,0 -15,0 21 11 29 16 N 20 0,0
18.01.2017 04:00:00 -8,1 -14,9 22 12 28 15 N 20 0,0
18.01.2017 03:00:00 -8,5 -14,9 22 12 31 17 NNE 20 0,0
18.01.2017 02:00:00 -9,0 -14,6 21 11 29 16 NNE 20 0,0
18.01.2017 01:00:00 -8,9 -14,9 22 12 41 22 NNE 20 0,0
18.01.2017 00:00:00 -9,6 -14,6 31 17 40 21 NNE 20 0,0
17.01.2017 23:00:00 -10,2 -14,5 29 16 40 22 N 20 0,0
17.01.2017 22:00:00 -10,8 -14,4 36 19 52 28 N 20 0,0
17.01.2017 21:00:00 -12,2 -14,2 44 24 64 34 N 20 0,0
17.01.2017 20:00:00 -12,5 -14,4 40 21 69 37 N 20 0,0
17.01.2017 19:00:00 -12,5 -14,2 48 26 72 39 N 20 0,0
17.01.2017 18:00:00 -12,4 -14,1 51 27 70 38 N 20 0,0
17.01.2017 17:00:00 -11,9 -14,1 44 24 59 32 N 20 0,0
17.01.2017 16:00:00 -11,1 -13,9 26 14 50 27 N 20 0,0
17.01.2017 15:00:00 -10,8 -14,0 36 19 74 40 N 20 0,0
17.01.2017 14:00:00 -11,1 -14,3 53 28 77 41 N 20 0,0
17.01.2017 13:00:00 -11,0 -14,4 37 20 73 39 N 20 0,0
17.01.2017 12:00:00 -11,2 -14,6 28 15 100 54 NNE 20 0,0
17.01.2017 11:00:00 -12,1 -15,3 71 38 97 52 N 20 0,0
17.01.2017 10:00:00 -12,2 -15,3 32 18 74 40 NNE 20 0,0
17.01.2017 09:00:00 -12,7 -15,7 36 20 91 49 NNE 20 0,0
17.01.2017 08:00:00 -13,0 -15,9 42 23 114 62 NNE 20 0,0
17.01.2017 07:00:00 -12,9 -15,9 70 38 118 64 NNE 20 0,0
17.01.2017 06:00:00 -13,0 -15,7 70 38 98 53 NNE 20 0,0
17.01.2017 05:00:00 -12,9 -15,2 73 39 109 59 N 14 0,0

tt = Température de l'air
td = dewpoint
ff = Vitesse du vent
fx = gusts
dd = Direction du vent
vv = visibility
rr = Quantités de précipitations

stations d'obs. à proximité